Aeroporto :
LOGIN :

Iscrizione | Disclaimer

   EN    FR    IT 

 










Sommario :    VFR   VFR Marginale   IFR   IFR Intensivo   IFR Molto Intensivo
Visibilità : 
Base nubi : 
>= 8 km
>= 3000ft
5 / 8 km
1000 / 3000 ft
1500m / 5 km
500 / 1000 ft
800 / 1500m
200 / 500 ft
< 800m
< 200 ft
Simboli :   Temporali  Nebbia  Neve Forte  Precipitazioni Forti  Vento > 20 kt
SIGMETs :   Varie  Temporali  Ghiacco  Turbolenza  Onda orograficha  Ceneri Vulcaniche







- Altitudine del aeroporto : 144 ft
- Codice IATA : PGF
- Carte del aeroporto


LFMP - Perpignan

ULTIMO METAR :
  • 180430Z AUTO 00000KT 9999 NCD 17/15 Q1014 BECMG 06010KT

METARs OBSOLETI :
  • 180400Z AUTO 23003KT CAVOK 17/15 Q1013 BECMG 06010KT
  • 180330Z AUTO 26005KT CAVOK 16/14 Q1014 BECMG 06010KT
  • 180300Z AUTO 25003KT 220V290 CAVOK 17/15 Q1014 BECMG 06010KT
  • 180230Z AUTO 26001KT CAVOK 17/15 Q1014
  • 180200Z AUTO VRB02KT CAVOK 18/15 Q1014
  • 180130Z AUTO 06003KT CAVOK 18/15 Q1014

TAF TAF LFMP
Valido dal 18 a 03 ore il 19 a 03 ore UTC


180200Z 1803/1903 06010KT CAVOK
BECMG 1822/1824 VRB03KT
ATIS : +33 4 68 63 75 12
Nessun NOTAM noto per questo aeroporto.



MetMap, La meteo Aeronautica in un colpo d'occhio ! - Copyright ORBIFLY Dicembre 2007 - Disclaimer

ORBIFLY MET'MAP TEAM :

Programmazione e sviluppo : Alexandra Zaïnal
Concezione e sviluppo : Baudouin d'Aumeries
Co-Programmazione e sviluppo : Marc-Olivier Méhu
Supporto tecnico e logistico : Manuel Goepfert
Aiuto per la traduzione : Arnaldo La Scala

Contatto : metmap@orbifly.com




FONTI E CREDITI :

   NOAA